8A0

Albertville Regional-Thomas J Brumlik Field Airport

Albertville, Alabama, USA
METAR K8A0 170355Z AUTO 00000KT 10SM SCT065 OVC100 15/15 A3017 RMK AO2
Observed Flight Rules
Oct-17 @ 03:55 UTC (an hour ago) Visual Flight Rules
Visibility Clouds
10 miles
  • Scattered at 6,500' AGL
  • Overcast at 10,000' AGL
Temperatures Readings
Current 15°C / 59°F
Dewpoint 15°C / 59°F
Humidity 100%
Altimeter 30.17" Hg
Pressure 1022 hPa
Elevation 315
METAR K8A0 170355Z AUTO 00000KT 10SM SCT065 OVC100 15/15 A3017 RMK AO2
Observed Flight Rules
Oct-17 @ 03:55 UTC
(an hour ago)
VFR
Clouds
  • Scattered at 6,500' AGL
  • Overcast at 10,000' AGL
Temperature Dewpoint
15°C / 59°F 15°C / 59°F
Humidity Altimeter Pressure
100% 30.17" Hg 1022 hPa